createdAt,value
2017-11-29T00:01:08.464Z,19.41
2017-11-29T00:03:34.909Z,19.40
2017-11-29T00:06:01.157Z,19.39
2017-11-29T00:08:27.638Z,19.38
2017-11-29T00:10:53.829Z,19.38
2017-11-29T00:13:20.080Z,19.38
2017-11-29T00:15:46.262Z,19.36
2017-11-29T00:18:12.461Z,19.38
2017-11-29T00:20:38.783Z,19.41
2017-11-29T00:23:04.981Z,19.42
2017-11-29T00:25:31.181Z,19.43
2017-11-29T00:27:57.771Z,19.44
2017-11-29T00:30:24.388Z,19.43
2017-11-29T00:32:50.633Z,19.43
2017-11-29T00:35:16.901Z,19.41
2017-11-29T00:37:43.090Z,19.45
2017-11-29T00:40:09.282Z,19.43
2017-11-29T00:42:35.527Z,19.43
2017-11-29T00:45:01.703Z,19.42
2017-11-29T00:47:28.125Z,19.42
2017-11-29T00:49:54.383Z,19.42
2017-11-29T00:52:20.567Z,19.41
2017-11-29T00:54:47.017Z,19.37
2017-11-29T00:57:13.531Z,19.32
2017-11-29T00:59:39.774Z,19.28
2017-11-29T01:02:06.241Z,19.28
2017-11-29T01:04:32.479Z,19.29
2017-11-29T01:06:58.651Z,19.28
2017-11-29T01:09:24.842Z,19.29
2017-11-29T01:11:51.069Z,19.31
2017-11-29T01:14:17.249Z,19.35
2017-11-29T01:16:43.437Z,19.40
2017-11-29T01:19:09.763Z,19.41
2017-11-29T01:21:35.931Z,19.40
2017-11-29T01:24:02.350Z,19.45
2017-11-29T01:26:28.557Z,19.46
2017-11-29T01:28:54.750Z,19.45
2017-11-29T01:31:20.990Z,19.45
2017-11-29T01:33:47.198Z,19.45
2017-11-29T01:36:13.627Z,19.46
2017-11-29T01:38:39.896Z,19.42
2017-11-29T01:41:06.127Z,19.39
2017-11-29T01:43:32.358Z,19.36
2017-11-29T01:45:58.647Z,19.36
2017-11-29T01:48:24.887Z,19.37
2017-11-29T01:50:51.063Z,19.35
2017-11-29T01:53:17.314Z,19.35
2017-11-29T01:55:43.501Z,19.44
2017-11-29T01:58:09.699Z,19.49
2017-11-29T02:00:48.167Z,19.50
2017-11-29T02:03:14.380Z,19.48
2017-11-29T02:05:40.563Z,19.47
2017-11-29T02:08:06.898Z,19.48
2017-11-29T02:10:33.092Z,19.49
2017-11-29T02:12:59.283Z,19.49
2017-11-29T02:15:25.540Z,19.49
2017-11-29T02:17:51.721Z,19.47
2017-11-29T02:20:17.930Z,19.49
2017-11-29T02:22:44.422Z,19.47
2017-11-29T02:25:10.721Z,19.47
2017-11-29T02:27:36.942Z,19.47
2017-11-29T02:30:03.224Z,19.47
2017-11-29T02:32:29.450Z,19.48
2017-11-29T02:34:55.676Z,19.44
2017-11-29T02:37:21.930Z,19.45
2017-11-29T02:40:00.426Z,19.45
2017-11-29T02:42:36.781Z,19.42
2017-11-29T02:45:03.079Z,19.40
2017-11-29T02:47:29.352Z,19.43
2017-11-29T02:49:55.697Z,19.45
2017-11-29T02:52:21.955Z,19.41
2017-11-29T02:54:48.181Z,19.40
2017-11-29T02:57:14.510Z,19.40
2017-11-29T02:59:40.717Z,19.39
2017-11-29T03:02:06.987Z,19.38
2017-11-29T03:04:33.319Z,19.38
2017-11-29T03:06:59.553Z,19.40
2017-11-29T03:09:25.741Z,19.40
2017-11-29T03:11:52.216Z,19.42
2017-11-29T03:14:18.402Z,19.40
2017-11-29T03:16:44.823Z,19.38
2017-11-29T03:19:11.079Z,19.38
2017-11-29T03:21:37.250Z,19.38
2017-11-29T03:24:03.445Z,19.39
2017-11-29T03:26:29.773Z,19.38
2017-11-29T03:28:55.973Z,19.38
2017-11-29T03:31:22.155Z,19.38
2017-11-29T03:33:48.789Z,19.38
2017-11-29T03:36:14.968Z,19.39
2017-11-29T03:38:41.167Z,19.40
2017-11-29T03:41:07.469Z,19.38
2017-11-29T03:43:33.889Z,19.37
2017-11-29T03:46:00.320Z,19.40
2017-11-29T03:48:26.555Z,19.43
2017-11-29T03:50:52.746Z,19.43
2017-11-29T03:53:18.946Z,19.44
2017-11-29T03:55:45.190Z,19.47
2017-11-29T03:58:11.393Z,19.45
2017-11-29T04:00:37.587Z,19.48
2017-11-29T04:03:03.901Z,19.49
2017-11-29T04:05:30.085Z,19.50
2017-11-29T04:07:56.274Z,19.46
2017-11-29T04:10:22.615Z,19.48
2017-11-29T04:12:48.815Z,19.49
2017-11-29T04:15:15.056Z,19.46
2017-11-29T04:17:41.373Z,19.46
2017-11-29T04:20:07.565Z,19.45
2017-11-29T04:22:33.751Z,19.45
2017-11-29T04:25:00.007Z,19.44
2017-11-29T04:27:26.229Z,19.46
2017-11-29T04:29:52.650Z,19.47
2017-11-29T04:32:18.987Z,19.51
2017-11-29T04:34:45.232Z,19.51
2017-11-29T04:37:11.498Z,19.52
2017-11-29T04:39:37.814Z,19.50
2017-11-29T04:42:04.023Z,19.46
2017-11-29T04:44:30.296Z,19.43
2017-11-29T04:46:56.625Z,19.41
2017-11-29T04:49:22.823Z,19.40
2017-11-29T04:51:49.014Z,19.43
2017-11-29T04:54:15.351Z,19.44
2017-11-29T04:56:41.555Z,19.43
2017-11-29T04:59:08.040Z,19.42
2017-11-29T05:01:34.367Z,19.42
2017-11-29T05:04:00.566Z,19.43
2017-11-29T05:06:26.802Z,19.39
2017-11-29T05:08:53.096Z,19.39
2017-11-29T05:11:19.333Z,19.45
2017-11-29T05:13:45.601Z,19.47
2017-11-29T05:16:11.857Z,19.50
2017-11-29T05:18:38.073Z,19.49
2017-11-29T05:21:04.319Z,19.51
2017-11-29T05:23:30.579Z,19.51
2017-11-29T05:25:57.013Z,19.50
2017-11-29T05:28:23.222Z,19.50
2017-11-29T05:30:49.523Z,19.48
2017-11-29T05:33:15.755Z,19.47
2017-11-29T05:35:41.981Z,19.52
2017-11-29T05:38:08.370Z,19.52
2017-11-29T05:40:34.610Z,19.51
2017-11-29T05:43:00.895Z,19.52
2017-11-29T05:45:27.238Z,19.52
2017-11-29T05:47:53.432Z,19.51
2017-11-29T05:50:19.746Z,19.50
2017-11-29T05:52:46.013Z,19.45
2017-11-29T05:55:12.235Z,19.44
2017-11-29T05:57:38.670Z,19.43
2017-11-29T06:00:05.010Z,19.42
2017-11-29T06:02:31.210Z,19.42
2017-11-29T06:04:57.463Z,19.41
2017-11-29T06:07:23.779Z,19.43
2017-11-29T06:09:49.978Z,19.44
2017-11-29T06:12:16.409Z,19.43
2017-11-29T06:14:42.741Z,19.44
2017-11-29T06:17:08.949Z,19.42
2017-11-29T06:19:35.154Z,19.42
2017-11-29T06:22:01.397Z,19.42
2017-11-29T06:24:27.592Z,19.45
2017-11-29T06:26:54.014Z,19.46
2017-11-29T06:29:20.356Z,19.43
2017-11-29T06:31:46.768Z,19.43
2017-11-29T06:34:12.999Z,19.41
2017-11-29T06:36:39.491Z,19.43
2017-11-29T06:39:05.736Z,19.43
2017-11-29T06:41:31.950Z,19.49
2017-11-29T06:43:58.284Z,19.49
2017-11-29T06:46:24.725Z,19.49
2017-11-29T06:48:50.926Z,19.50
2017-11-29T06:51:17.176Z,19.47
2017-11-29T06:53:43.456Z,19.46
2017-11-29T06:56:09.665Z,19.43
2017-11-29T06:58:36.181Z,19.40
2017-11-29T07:01:02.410Z,19.46
2017-11-29T07:03:28.617Z,19.48
2017-11-29T07:05:54.951Z,19.52
2017-11-29T07:08:21.154Z,19.56
2017-11-29T07:10:47.590Z,19.53
2017-11-29T07:13:13.826Z,19.50
2017-11-29T07:15:40.087Z,19.51
2017-11-29T07:18:06.267Z,19.48
2017-11-29T07:20:32.537Z,19.47
2017-11-29T07:22:58.726Z,19.45
2017-11-29T07:25:24.984Z,19.47
2017-11-29T07:27:51.278Z,19.47
2017-11-29T07:30:17.460Z,19.46
2017-11-29T07:32:43.650Z,19.46
2017-11-29T07:35:09.897Z,19.49
2017-11-29T07:37:36.191Z,19.52
2017-11-29T07:40:02.405Z,19.52
2017-11-29T07:42:28.729Z,19.53
2017-11-29T07:44:55.153Z,19.53
2017-11-29T07:47:21.354Z,19.54
2017-11-29T07:49:47.932Z,19.54
2017-11-29T07:52:14.131Z,19.57
2017-11-29T07:54:40.318Z,19.58
2017-11-29T07:57:06.625Z,19.57
2017-11-29T07:59:32.829Z,19.59
2017-11-29T08:01:59.306Z,19.58
2017-11-29T08:04:25.682Z,19.58
2017-11-29T08:06:51.894Z,19.57
2017-11-29T08:09:18.111Z,19.57
2017-11-29T08:11:44.408Z,19.59
2017-11-29T08:14:10.651Z,19.59
2017-11-29T08:16:37.110Z,19.57
2017-11-29T08:19:03.378Z,19.59
2017-11-29T08:21:29.624Z,19.59
2017-11-29T08:23:55.886Z,19.57
2017-11-29T08:26:22.892Z,19.55
2017-11-29T08:28:49.103Z,19.57
2017-11-29T08:31:15.338Z,19.57
2017-11-29T08:33:41.616Z,19.60
2017-11-29T08:36:07.866Z,19.61
2017-11-29T08:38:34.087Z,19.59
2017-11-29T08:41:00.496Z,19.60
2017-11-29T08:43:26.712Z,19.59
2017-11-29T08:45:52.918Z,19.59
2017-11-29T08:48:19.205Z,19.56
2017-11-29T08:50:45.439Z,19.58
2017-11-29T08:53:11.661Z,19.60
2017-11-29T08:55:37.996Z,19.58
2017-11-29T08:58:05.222Z,19.58
2017-11-29T09:00:31.583Z,19.61
2017-11-29T09:02:58.105Z,19.61
2017-11-29T09:05:24.331Z,19.64
2017-11-29T09:07:50.552Z,19.63
2017-11-29T09:10:16.828Z,19.63
2017-11-29T09:12:43.035Z,19.66
2017-11-29T09:15:09.244Z,19.66
2017-11-29T09:17:35.598Z,19.68
2017-11-29T09:20:01.893Z,19.65
2017-11-29T09:22:28.164Z,19.65
2017-11-29T09:24:54.517Z,19.68
2017-11-29T09:27:20.896Z,19.68
2017-11-29T09:29:47.408Z,19.67
2017-11-29T09:32:13.999Z,19.67
2017-11-29T09:34:40.549Z,19.70
2017-11-29T09:37:07.017Z,19.70
2017-11-29T09:39:33.332Z,19.70
2017-11-29T09:42:00.373Z,19.56
2017-11-29T09:44:26.838Z,19.65
2017-11-29T09:46:53.393Z,19.67
2017-11-29T09:49:19.723Z,19.68
2017-11-29T09:51:46.185Z,19.71
2017-11-29T09:54:12.476Z,19.75
2017-11-29T09:56:38.955Z,19.78
2017-11-29T09:59:05.334Z,19.74
2017-11-29T10:01:31.831Z,19.72
2017-11-29T10:03:58.080Z,19.73
2017-11-29T10:06:24.298Z,19.74
2017-11-29T10:08:50.592Z,19.75
2017-11-29T10:11:17.110Z,19.74
2017-11-29T10:13:43.572Z,19.75
2017-11-29T10:16:10.257Z,19.75
2017-11-29T10:18:36.519Z,19.78
2017-11-29T10:21:02.732Z,19.79
2017-11-29T10:23:29.097Z,19.79
2017-11-29T10:25:55.385Z,19.79
2017-11-29T10:28:21.604Z,19.83
2017-11-29T10:30:47.978Z,19.81
2017-11-29T10:33:14.197Z,19.80
2017-11-29T10:35:40.490Z,19.78
2017-11-29T10:38:06.774Z,19.77
2017-11-29T10:40:33.167Z,19.74
2017-11-29T10:43:00.268Z,19.74
2017-11-29T10:45:26.645Z,19.75
2017-11-29T10:47:53.011Z,19.75
2017-11-29T10:50:19.326Z,19.76
2017-11-29T10:52:45.729Z,19.75
2017-11-29T10:55:12.327Z,19.74
2017-11-29T10:57:38.699Z,19.75
2017-11-29T11:00:05.110Z,19.73
2017-11-29T11:02:31.357Z,19.71
2017-11-29T11:04:57.755Z,19.71
2017-11-29T11:07:24.058Z,19.74
2017-11-29T11:09:50.680Z,19.71
2017-11-29T11:12:16.986Z,19.73
2017-11-29T11:14:43.240Z,19.73
2017-11-29T11:17:09.540Z,19.77
2017-11-29T11:19:35.854Z,19.79
2017-11-29T11:22:02.134Z,19.82
2017-11-29T11:24:28.409Z,19.83
2017-11-29T11:26:54.763Z,19.84
2017-11-29T11:29:21.155Z,19.87
2017-11-29T11:31:53.499Z,19.89
2017-11-29T11:34:19.787Z,19.87
2017-11-29T11:36:46.283Z,19.88
2017-11-29T11:39:12.615Z,19.90
2017-11-29T11:41:39.001Z,19.92
2017-11-29T11:44:05.554Z,19.91
2017-11-29T11:46:32.017Z,19.89
2017-11-29T11:48:58.381Z,19.85
2017-11-29T11:51:24.790Z,19.92
2017-11-29T11:53:51.005Z,19.95
2017-11-29T11:56:17.381Z,19.96
2017-11-29T11:58:43.738Z,19.97
2017-11-29T12:01:10.249Z,19.96
2017-11-29T12:03:36.459Z,19.97
2017-11-29T12:06:02.938Z,19.97
2017-11-29T12:08:29.280Z,19.95
2017-11-29T12:10:55.518Z,19.92
2017-11-29T12:13:21.778Z,19.92
2017-11-29T12:15:48.008Z,19.88
2017-11-29T12:18:14.332Z,19.83
2017-11-29T12:20:40.547Z,19.88
2017-11-29T12:23:06.752Z,19.88
2017-11-29T12:25:33.106Z,19.86
2017-11-29T12:27:59.368Z,19.88
2017-11-29T12:30:25.562Z,19.91
2017-11-29T12:32:51.908Z,19.93
2017-11-29T12:35:18.129Z,19.94
2017-11-29T12:37:44.324Z,19.94
2017-11-29T12:40:10.552Z,19.92
2017-11-29T12:42:37.064Z,19.92
2017-11-29T12:45:04.335Z,19.91
2017-11-29T12:47:38.345Z,19.92
2017-11-29T12:50:16.635Z,19.94
2017-11-29T12:52:42.902Z,19.96
2017-11-29T12:55:09.126Z,19.96
2017-11-29T12:57:35.331Z,19.98
2017-11-29T13:00:01.676Z,19.98
2017-11-29T13:02:27.954Z,19.96
2017-11-29T13:04:55.787Z,19.93
2017-11-29T13:07:24.820Z,19.93
2017-11-29T13:09:52.464Z,19.93
2017-11-29T13:12:21.796Z,19.92
2017-11-29T13:14:48.998Z,19.88
2017-11-29T13:17:15.369Z,19.86
2017-11-29T13:19:41.571Z,19.83
2017-11-29T13:22:07.830Z,19.84
2017-11-29T13:24:34.030Z,19.81
2017-11-29T13:27:00.539Z,19.79
2017-11-29T13:29:26.892Z,19.79
2017-11-29T13:31:53.094Z,19.78
2017-11-29T13:34:20.427Z,19.79
2017-11-29T13:36:46.814Z,19.78
2017-11-29T13:39:13.049Z,19.78
2017-11-29T13:41:39.405Z,19.77
2017-11-29T13:44:05.775Z,19.77
2017-11-29T13:46:31.968Z,19.78
2017-11-29T13:48:58.194Z,19.77
2017-11-29T13:51:24.555Z,19.80
2017-11-29T13:53:50.762Z,19.79
2017-11-29T13:56:17.446Z,19.75
2017-11-29T13:58:50.614Z,19.73
2017-11-29T14:01:16.931Z,19.69
2017-11-29T14:03:43.385Z,19.70
2017-11-29T14:06:09.762Z,19.70
2017-11-29T14:08:35.958Z,19.69
2017-11-29T14:11:14.760Z,19.68
2017-11-29T14:13:41.267Z,19.66
2017-11-29T14:16:07.462Z,19.65
2017-11-29T14:18:33.786Z,19.66
2017-11-29T14:20:59.987Z,19.66
2017-11-29T14:23:26.180Z,19.65
2017-11-29T14:25:52.662Z,19.63
2017-11-29T14:28:18.868Z,19.60
2017-11-29T14:30:45.112Z,19.60
2017-11-29T14:33:11.451Z,19.60
2017-11-29T14:35:37.638Z,19.59
2017-11-29T14:38:03.900Z,19.57
2017-11-29T14:40:30.114Z,19.57
2017-11-29T14:42:56.442Z,19.57
2017-11-29T14:45:32.607Z,19.54
2017-11-29T14:48:00.080Z,19.55
2017-11-29T14:50:26.356Z,19.54
2017-11-29T14:52:52.688Z,19.53
2017-11-29T14:55:18.916Z,19.54
2017-11-29T14:57:45.141Z,19.57
2017-11-29T15:00:11.572Z,19.54
2017-11-29T15:02:38.292Z,19.52
2017-11-29T15:05:04.582Z,19.47
2017-11-29T15:07:31.077Z,19.49
2017-11-29T15:10:04.181Z,19.47
2017-11-29T15:12:30.457Z,19.47
2017-11-29T15:14:58.311Z,19.45
2017-11-29T15:17:24.638Z,19.42
2017-11-29T15:19:51.911Z,19.42
2017-11-29T15:22:18.333Z,19.44
2017-11-29T15:24:44.587Z,19.45
2017-11-29T15:27:10.798Z,19.46
2017-11-29T15:29:37.005Z,19.44
2017-11-29T15:32:03.309Z,19.45
2017-11-29T15:34:29.516Z,19.43
2017-11-29T15:36:56.194Z,19.45
2017-11-29T15:39:22.416Z,19.46
2017-11-29T15:41:48.623Z,19.47
2017-11-29T15:44:15.055Z,19.50
2017-11-29T15:46:41.470Z,19.49
2017-11-29T15:49:07.696Z,19.47
2017-11-29T15:51:34.705Z,19.45
2017-11-29T15:54:00.902Z,19.42
2017-11-29T15:56:27.078Z,19.47
2017-11-29T15:58:53.558Z,19.46
2017-11-29T16:01:19.781Z,19.46
2017-11-29T16:03:45.989Z,19.44
2017-11-29T16:06:12.532Z,19.42
2017-11-29T16:08:39.051Z,19.42
2017-11-29T16:11:05.259Z,19.41
2017-11-29T16:13:31.873Z,19.43
2017-11-29T16:15:58.133Z,19.41
2017-11-29T16:18:24.395Z,19.41
2017-11-29T16:20:50.733Z,19.42
2017-11-29T16:23:16.965Z,19.40
2017-11-29T16:25:43.169Z,19.40
2017-11-29T16:28:09.447Z,19.38
2017-11-29T16:30:35.627Z,19.36
2017-11-29T16:33:01.824Z,19.36
2017-11-29T16:35:28.440Z,19.33
2017-11-29T16:37:54.680Z,19.33
2017-11-29T16:40:20.892Z,19.31
2017-11-29T16:42:47.275Z,19.30
2017-11-29T16:45:13.557Z,19.30
2017-11-29T16:47:39.755Z,19.31
2017-11-29T16:50:06.018Z,19.30
2017-11-29T16:52:32.245Z,19.31
2017-11-29T16:54:58.666Z,19.32
2017-11-29T16:57:25.004Z,19.30
2017-11-29T16:59:51.228Z,19.31
2017-11-29T17:02:17.522Z,19.30
2017-11-29T17:04:43.845Z,19.29
2017-11-29T17:07:10.099Z,19.29
2017-11-29T17:09:36.561Z,19.29
2017-11-29T17:12:02.911Z,19.26
2017-11-29T17:14:29.358Z,19.26
2017-11-29T17:16:55.789Z,19.27
2017-11-29T17:19:22.159Z,19.23
2017-11-29T17:21:48.424Z,19.27
2017-11-29T17:24:14.633Z,19.24
2017-11-29T17:26:40.886Z,19.23
2017-11-29T17:29:07.074Z,19.25
2017-11-29T17:31:33.557Z,19.24
2017-11-29T17:33:59.911Z,19.21
2017-11-29T17:36:26.141Z,19.22
2017-11-29T17:38:52.345Z,19.23
2017-11-29T17:41:18.667Z,19.23
2017-11-29T17:43:44.882Z,19.25
2017-11-29T17:46:11.129Z,19.22
2017-11-29T17:48:37.463Z,19.22
2017-11-29T17:51:03.933Z,19.22
2017-11-29T17:53:30.171Z,19.23
2017-11-29T17:55:56.423Z,19.27
2017-11-29T17:58:22.630Z,19.28
2017-11-29T18:00:48.902Z,19.26
2017-11-29T18:03:15.317Z,19.25
2017-11-29T18:05:41.532Z,19.20
2017-11-29T18:08:07.741Z,19.22
2017-11-29T18:10:33.987Z,19.23
2017-11-29T18:13:00.275Z,19.22
2017-11-29T18:15:26.462Z,19.23
2017-11-29T18:17:52.713Z,19.27
2017-11-29T18:20:18.896Z,19.29
2017-11-29T18:22:45.130Z,19.27
2017-11-29T18:25:11.506Z,19.28
2017-11-29T18:27:37.741Z,19.23
2017-11-29T18:30:03.985Z,19.25
2017-11-29T18:32:30.537Z,19.25
2017-11-29T18:34:56.798Z,19.25
2017-11-29T18:37:22.985Z,19.23
2017-11-29T18:39:49.246Z,19.24
2017-11-29T18:42:15.448Z,19.22
2017-11-29T18:44:41.642Z,19.25
2017-11-29T18:47:08.095Z,19.28
2017-11-29T18:49:34.298Z,19.26
2017-11-29T18:52:00.490Z,19.22
2017-11-29T18:54:26.836Z,19.23
2017-11-29T18:56:53.034Z,19.26
2017-11-29T18:59:19.252Z,19.23
2017-11-29T19:01:45.519Z,19.25
2017-11-29T19:04:11.792Z,19.27
2017-11-29T19:06:38.017Z,19.29
2017-11-29T19:09:04.443Z,19.28
2017-11-29T19:11:30.642Z,19.32
2017-11-29T19:13:56.852Z,19.34
2017-11-29T19:16:23.126Z,19.35
2017-11-29T19:18:49.880Z,19.37
2017-11-29T19:21:16.108Z,19.35
2017-11-29T19:23:42.381Z,19.35
2017-11-29T19:26:08.863Z,19.33
2017-11-29T19:28:36.629Z,19.36
2017-11-29T19:31:02.958Z,19.36
2017-11-29T19:33:29.423Z,19.34
2017-11-29T19:35:55.675Z,19.34
2017-11-29T19:38:21.942Z,19.28
2017-11-29T19:40:48.146Z,19.32
2017-11-29T19:43:14.327Z,19.35
2017-11-29T19:45:40.683Z,19.38
2017-11-29T19:48:06.970Z,19.42
2017-11-29T19:50:33.161Z,19.37
2017-11-29T19:52:59.498Z,19.38
2017-11-29T19:55:25.708Z,19.41
2017-11-29T19:57:52.038Z,19.40
2017-11-29T20:00:18.392Z,19.46
2017-11-29T20:02:44.661Z,19.47
2017-11-29T20:05:11.181Z,19.49
2017-11-29T20:07:37.416Z,19.54
2017-11-29T20:10:03.673Z,19.52
2017-11-29T20:12:29.947Z,19.46
2017-11-29T20:14:56.279Z,19.44
2017-11-29T20:17:22.542Z,19.45
2017-11-29T20:19:48.753Z,19.46
2017-11-29T20:22:15.247Z,19.48
2017-11-29T20:24:41.699Z,19.48
2017-11-29T20:27:07.899Z,19.47
2017-11-29T20:29:34.180Z,19.48
2017-11-29T20:32:00.371Z,19.49
2017-11-29T20:34:26.553Z,19.48
2017-11-29T20:36:52.882Z,19.45
2017-11-29T20:39:19.106Z,19.46
2017-11-29T20:41:45.309Z,19.47
2017-11-29T20:44:11.646Z,19.44
2017-11-29T20:46:37.850Z,19.45
2017-11-29T20:49:04.224Z,19.39
2017-11-29T20:51:30.471Z,19.40
2017-11-29T20:53:56.924Z,19.41
2017-11-29T20:56:23.115Z,19.41
2017-11-29T20:58:49.387Z,19.41
2017-11-29T21:01:15.582Z,19.38
2017-11-29T21:03:41.800Z,19.37
2017-11-29T21:06:08.311Z,19.42
2017-11-29T21:08:34.508Z,19.42
2017-11-29T21:11:00.746Z,19.41
2017-11-29T21:13:27.051Z,19.42
2017-11-29T21:15:53.375Z,19.42
2017-11-29T21:18:19.601Z,19.42
2017-11-29T21:20:45.912Z,19.43
2017-11-29T21:23:12.123Z,19.43
2017-11-29T21:25:38.554Z,19.45
2017-11-29T21:28:04.947Z,19.45
2017-11-29T21:30:31.130Z,19.47
2017-11-29T21:32:57.326Z,19.46
2017-11-29T21:35:23.552Z,19.46
2017-11-29T21:37:49.734Z,19.48
2017-11-29T21:40:16.066Z,19.48
2017-11-29T21:42:42.267Z,19.47
2017-11-29T21:45:08.484Z,19.46
2017-11-29T21:47:34.754Z,19.43
2017-11-29T21:50:00.983Z,19.47
2017-11-29T21:52:27.573Z,19.54
2017-11-29T21:54:53.982Z,19.53
2017-11-29T21:57:20.178Z,19.50
2017-11-29T21:59:46.364Z,19.47
2017-11-29T22:02:12.720Z,19.53
2017-11-29T22:04:38.967Z,19.56
2017-11-29T22:07:05.264Z,19.58
2017-11-29T22:09:31.726Z,19.57
2017-11-29T22:11:57.927Z,19.56
2017-11-29T22:14:24.202Z,19.57
2017-11-29T22:16:50.514Z,19.58
2017-11-29T22:19:16.723Z,19.59
2017-11-29T22:21:42.981Z,19.59
2017-11-29T22:24:09.244Z,19.58
2017-11-29T22:26:41.396Z,19.57
2017-11-29T22:29:07.853Z,19.58
2017-11-29T22:31:34.110Z,19.58
2017-11-29T22:34:00.299Z,19.58
2017-11-29T22:36:26.498Z,19.56
2017-11-29T22:38:52.904Z,19.56
2017-11-29T22:41:19.091Z,19.57
2017-11-29T22:43:45.287Z,19.54
2017-11-29T22:46:11.540Z,19.50
2017-11-29T22:48:37.783Z,19.53
2017-11-29T22:51:04.014Z,19.57
2017-11-29T22:53:30.302Z,19.56
2017-11-29T22:55:56.483Z,19.54
2017-11-29T22:58:22.938Z,19.52
2017-11-29T23:00:49.503Z,19.50
2017-11-29T23:03:15.953Z,19.50
2017-11-29T23:05:42.159Z,19.50
2017-11-29T23:08:08.731Z,19.52
2017-11-29T23:10:34.917Z,19.53
2017-11-29T23:13:01.109Z,19.51
2017-11-29T23:15:27.666Z,19.50
2017-11-29T23:17:53.849Z,19.48
2017-11-29T23:20:20.044Z,19.49
2017-11-29T23:22:46.286Z,19.49
2017-11-29T23:25:12.475Z,19.49
2017-11-29T23:27:38.967Z,19.50
2017-11-29T23:30:05.295Z,19.50
2017-11-29T23:32:31.518Z,19.50
2017-11-29T23:34:57.723Z,19.50
2017-11-29T23:37:23.970Z,19.54
2017-11-29T23:39:50.183Z,19.52
2017-11-29T23:42:16.399Z,19.51
2017-11-29T23:44:42.959Z,19.52
2017-11-29T23:47:09.163Z,19.52
2017-11-29T23:49:35.691Z,19.56
2017-11-29T23:52:02.002Z,19.57
2017-11-29T23:54:28.222Z,19.54
2017-11-29T23:56:54.423Z,19.53
2017-11-29T23:59:20.670Z,19.54
